createdAt,value
2023-02-23T00:00:44.999Z,98854.69
2023-02-23T00:04:48.435Z,98853.50
2023-02-23T00:08:53.720Z,98857.03
2023-02-23T00:12:56.973Z,98858.97
2023-02-23T00:17:01.455Z,98833.59
2023-02-23T00:21:04.719Z,98853.44
2023-02-23T00:25:11.784Z,98848.16
2023-02-23T00:29:17.914Z,98845.59
2023-02-23T00:33:22.075Z,98833.19
2023-02-23T00:37:25.676Z,98842.97
2023-02-23T00:41:30.747Z,98848.25
2023-02-23T00:45:34.012Z,98840.75
2023-02-23T00:49:37.200Z,98838.56
2023-02-23T00:53:40.257Z,98841.69
2023-02-23T00:57:44.979Z,98832.78
2023-02-23T01:01:48.273Z,98844.63
2023-02-23T01:05:51.347Z,98835.44
2023-02-23T01:09:54.512Z,98826.78
2023-02-23T01:14:00.712Z,98832.06
2023-02-23T01:18:03.941Z,98841.63
2023-02-23T01:22:06.939Z,98840.16
2023-02-23T01:26:16.791Z,98836.78
2023-02-23T01:30:21.211Z,98842.34
2023-02-23T01:34:24.602Z,98832.78
2023-02-23T01:38:28.332Z,98838.84
2023-02-23T01:42:31.558Z,98834.38
2023-02-23T01:46:39.398Z,98838.19
2023-02-23T01:50:49.897Z,98822.75
2023-02-23T01:54:54.867Z,98825.09
2023-02-23T01:58:59.663Z,98832.91
2023-02-23T02:03:08.920Z,98826.91
2023-02-23T02:07:20.693Z,98826.84
2023-02-23T02:11:30.929Z,98822.00
2023-02-23T02:15:38.779Z,98822.72
2023-02-23T02:20:15.059Z,98824.63
2023-02-23T02:24:44.975Z,98822.78
2023-02-23T02:29:18.884Z,98824.50
2023-02-23T02:33:47.195Z,98815.00
2023-02-23T02:38:01.863Z,98814.69
2023-02-23T02:42:14.871Z,98813.25
2023-02-23T02:46:19.516Z,98820.59
2023-02-23T02:50:25.748Z,98820.97
2023-02-23T02:54:33.207Z,98810.66
2023-02-23T02:58:39.075Z,98813.75
2023-02-23T03:02:59.931Z,98805.88
2023-02-23T03:07:24.768Z,98821.84
2023-02-23T03:11:54.119Z,98818.25
2023-02-23T03:16:20.159Z,98817.94
2023-02-23T03:20:45.615Z,98824.72
2023-02-23T03:25:10.562Z,98814.81
2023-02-23T03:29:37.496Z,98824.31
2023-02-23T03:34:03.048Z,98826.97
2023-02-23T03:38:27.334Z,98824.44
2023-02-23T03:42:51.877Z,98801.50
2023-02-23T03:47:14.897Z,98818.44
2023-02-23T03:51:37.030Z,98829.28
2023-02-23T03:56:00.389Z,98821.81
2023-02-23T04:00:23.866Z,98832.31
2023-02-23T04:04:47.066Z,98807.09
2023-02-23T04:09:09.874Z,98828.34
2023-02-23T04:13:14.620Z,98828.94
2023-02-23T04:17:18.667Z,98827.63
2023-02-23T04:21:23.148Z,98843.78
2023-02-23T04:25:27.102Z,98850.22
2023-02-23T04:29:30.130Z,98845.22
2023-02-23T04:33:33.095Z,98849.00
2023-02-23T04:37:37.663Z,98852.47
2023-02-23T04:41:40.705Z,98843.72
2023-02-23T04:45:43.832Z,98843.13
2023-02-23T04:49:47.729Z,98851.47
2023-02-23T04:53:58.026Z,98859.50
2023-02-23T04:58:02.392Z,98858.03
2023-02-23T05:02:05.488Z,98831.72
2023-02-23T05:06:08.755Z,98829.44
2023-02-23T05:10:14.009Z,98839.69
2023-02-23T05:14:17.185Z,98833.88
2023-02-23T05:18:20.531Z,98834.78
2023-02-23T05:22:24.351Z,98841.38
2023-02-23T05:26:28.561Z,98827.53
2023-02-23T05:30:31.806Z,98851.31
2023-02-23T05:34:35.463Z,98841.31
2023-02-23T05:38:38.902Z,98865.03
2023-02-23T05:42:43.582Z,98851.94
2023-02-23T05:46:49.100Z,98866.94
2023-02-23T05:50:52.170Z,98858.25
2023-02-23T05:54:55.322Z,98869.16
2023-02-23T05:59:00.297Z,98874.22
2023-02-23T06:03:03.592Z,98854.66
2023-02-23T06:07:06.756Z,98866.75
2023-02-23T06:11:10.204Z,98871.97
2023-02-23T06:15:14.425Z,98881.53
2023-02-23T06:19:17.438Z,98874.06
2023-02-23T06:23:20.365Z,98867.00
2023-02-23T06:27:23.421Z,98889.38
2023-02-23T06:31:27.948Z,98891.84
2023-02-23T06:35:31.003Z,98891.44
2023-02-23T06:39:34.556Z,98898.94
2023-02-23T06:43:37.747Z,98898.47
2023-02-23T06:47:42.276Z,98901.50
2023-02-23T06:51:45.264Z,98888.25
2023-02-23T06:55:48.300Z,98909.38
2023-02-23T06:59:51.524Z,98907.75
2023-02-23T07:03:56.773Z,98909.50
2023-02-23T07:08:00.019Z,98900.16
2023-02-23T07:12:04.495Z,98912.09
2023-02-23T07:16:08.040Z,98916.25
2023-02-23T07:20:13.933Z,98931.53
2023-02-23T07:24:17.396Z,98941.13
2023-02-23T07:28:21.520Z,98933.94
2023-02-23T07:32:25.346Z,98940.56
2023-02-23T07:36:29.782Z,98936.19
2023-02-23T07:40:32.765Z,98914.81
2023-02-23T07:44:35.735Z,98948.34
2023-02-23T07:48:38.676Z,98944.59
2023-02-23T07:52:44.266Z,98917.09
2023-02-23T07:56:47.112Z,98930.38
2023-02-23T08:00:49.953Z,98916.97
2023-02-23T08:04:55.399Z,98950.50
2023-02-23T08:09:01.593Z,98940.06
2023-02-23T08:13:04.721Z,98952.59
2023-02-23T08:17:07.741Z,98956.66
2023-02-23T08:21:11.020Z,98948.44
2023-02-23T08:25:16.608Z,98953.22
2023-02-23T08:29:20.778Z,98959.38
2023-02-23T08:33:24.122Z,98955.66
2023-02-23T08:37:27.300Z,98962.84
2023-02-23T08:41:32.334Z,98955.66
2023-02-23T08:45:35.206Z,98947.56
2023-02-23T08:49:38.227Z,98958.94
2023-02-23T08:53:41.139Z,98968.44
2023-02-23T08:57:45.788Z,98969.97
2023-02-23T09:01:48.776Z,98971.75
2023-02-23T09:05:51.710Z,98969.84
2023-02-23T09:09:55.777Z,98971.00
2023-02-23T09:14:01.082Z,98964.91
2023-02-23T09:18:04.123Z,98976.66
2023-02-23T09:22:06.985Z,98982.84
2023-02-23T09:26:10.398Z,98973.50
2023-02-23T09:30:18.093Z,98975.84
2023-02-23T09:34:21.237Z,98986.72
2023-02-23T09:38:25.855Z,98988.53
2023-02-23T09:42:38.333Z,98981.00
2023-02-23T09:46:46.869Z,98988.72
2023-02-23T09:50:53.391Z,98987.44
2023-02-23T09:54:56.331Z,98995.56
2023-02-23T09:58:59.864Z,99003.78
2023-02-23T10:03:19.447Z,99005.56
2023-02-23T10:07:28.309Z,99001.59
2023-02-23T10:11:38.415Z,98991.66
2023-02-23T10:15:47.215Z,99014.59
2023-02-23T10:19:57.473Z,99021.97
2023-02-23T10:24:03.332Z,99012.75
2023-02-23T10:28:07.175Z,99023.94
2023-02-23T10:32:17.698Z,99000.91
2023-02-23T10:36:33.345Z,99010.84
2023-02-23T10:40:42.017Z,99020.13
2023-02-23T10:44:48.632Z,98995.19
2023-02-23T10:48:53.968Z,99016.13
2023-02-23T10:53:01.716Z,99009.72
2023-02-23T10:57:09.723Z,98997.78
2023-02-23T11:01:13.610Z,99029.63
2023-02-23T11:05:38.937Z,99028.00
2023-02-23T11:09:47.378Z,99017.97
2023-02-23T11:13:52.282Z,99017.25
2023-02-23T11:17:57.672Z,99025.16
2023-02-23T11:22:01.355Z,99029.25
2023-02-23T11:26:06.605Z,99024.56
2023-02-23T11:30:13.932Z,99027.91
2023-02-23T11:34:24.499Z,99016.47
2023-02-23T11:38:29.796Z,99018.63
2023-02-23T11:42:34.784Z,99006.31
2023-02-23T11:46:39.842Z,99003.63
2023-02-23T11:50:51.614Z,98996.34
2023-02-23T11:54:58.374Z,99010.28
2023-02-23T11:59:04.782Z,99005.56
2023-02-23T12:03:09.236Z,99001.19
2023-02-23T12:07:37.511Z,98997.50
2023-02-23T12:11:48.781Z,98994.94
2023-02-23T12:15:56.137Z,98992.16
2023-02-23T12:20:01.929Z,98994.50
2023-02-23T12:24:14.964Z,99000.09
2023-02-23T12:28:26.783Z,98995.09
2023-02-23T12:32:45.394Z,98983.44
2023-02-23T12:36:53.702Z,98987.69
2023-02-23T12:41:06.297Z,98988.75
2023-02-23T12:45:17.209Z,98988.38
2023-02-23T12:49:27.481Z,98987.41
2023-02-23T12:53:36.505Z,98978.66
2023-02-23T12:57:45.045Z,98983.13
2023-02-23T13:01:51.620Z,98972.69
2023-02-23T13:05:58.751Z,98977.13
2023-02-23T13:10:07.142Z,98980.72
2023-02-23T13:14:13.979Z,98966.84
2023-02-23T13:18:23.926Z,98983.16
2023-02-23T13:22:30.362Z,98968.19
2023-02-23T13:26:38.967Z,98941.53
2023-02-23T13:30:47.500Z,98966.25
2023-02-23T13:34:53.564Z,98974.41
2023-02-23T13:39:21.387Z,98967.03
2023-02-23T13:43:32.883Z,98964.75
2023-02-23T13:47:41.341Z,98929.34
2023-02-23T13:51:47.093Z,98956.59
2023-02-23T13:55:53.581Z,98947.09
2023-02-23T13:59:56.768Z,98944.19
2023-02-23T14:04:02.272Z,98949.63
2023-02-23T14:08:06.238Z,98944.16
2023-02-23T14:12:19.646Z,98956.38
2023-02-23T14:16:22.675Z,98944.16
2023-02-23T14:20:47.940Z,98945.47
2023-02-23T14:25:47.049Z,98937.38
2023-02-23T14:30:17.659Z,98935.94
2023-02-23T14:34:23.185Z,98932.75
2023-02-23T14:38:46.988Z,98941.44
2023-02-23T14:42:52.912Z,98947.34
2023-02-23T14:47:03.506Z,98940.53
2023-02-23T14:51:17.112Z,98952.50
2023-02-23T14:55:23.554Z,98940.03
2023-02-23T14:59:28.634Z,98941.63
2023-02-23T15:03:33.643Z,98952.34
2023-02-23T15:07:39.885Z,98942.88
2023-02-23T15:11:46.424Z,98936.06
2023-02-23T15:15:54.031Z,98953.03
2023-02-23T15:20:14.839Z,98957.41
2023-02-23T15:24:22.131Z,98947.69
2023-02-23T15:28:32.365Z,98952.41
2023-02-23T15:32:39.964Z,98951.97
2023-02-23T15:36:47.393Z,98968.63
2023-02-23T15:40:55.318Z,98954.81
2023-02-23T15:45:03.793Z,98948.22
2023-02-23T15:49:07.642Z,98944.84
2023-02-23T15:53:24.667Z,98953.28
2023-02-23T15:57:32.066Z,98943.78
2023-02-23T16:01:38.960Z,98945.16
2023-02-23T16:05:56.192Z,98950.53
2023-02-23T16:10:07.569Z,98958.75
2023-02-23T16:14:17.800Z,98946.94
2023-02-23T16:18:23.443Z,98945.53
2023-02-23T16:22:29.045Z,98942.06
2023-02-23T16:26:37.524Z,98950.16
2023-02-23T16:30:44.620Z,98944.56
2023-02-23T16:34:51.595Z,98953.91
2023-02-23T16:38:59.854Z,98926.16
2023-02-23T16:43:04.588Z,98952.09
2023-02-23T16:47:36.386Z,98941.63
2023-02-23T16:51:40.889Z,98952.59
2023-02-23T16:55:48.325Z,98947.41
2023-02-23T16:59:55.389Z,98943.91
2023-02-23T17:03:59.495Z,98956.13
2023-02-23T17:08:03.280Z,98955.81
2023-02-23T17:12:06.917Z,98958.41
2023-02-23T17:16:14.510Z,98964.91
2023-02-23T17:20:22.016Z,98966.31
2023-02-23T17:24:26.310Z,98973.41
2023-02-23T17:28:29.511Z,98968.78
2023-02-23T17:32:34.424Z,98967.84
2023-02-23T17:36:37.596Z,98971.78
2023-02-23T17:40:41.280Z,98975.22
2023-02-23T17:44:44.753Z,98977.97
2023-02-23T17:48:57.178Z,98977.41
2023-02-23T17:53:00.586Z,98968.28
2023-02-23T17:57:04.584Z,98971.28
2023-02-23T18:01:23.522Z,98983.31
2023-02-23T18:05:28.491Z,98989.63
2023-02-23T18:09:31.722Z,98976.69
2023-02-23T18:13:37.414Z,98986.13
2023-02-23T18:17:44.435Z,98993.56
2023-02-23T18:21:56.558Z,98984.16
2023-02-23T18:26:07.696Z,99007.00
2023-02-23T18:30:12.801Z,98989.38
2023-02-23T18:34:17.085Z,98973.00
2023-02-23T18:38:29.059Z,99002.22
2023-02-23T18:42:36.669Z,98996.22
2023-02-23T18:46:41.974Z,98983.59
2023-02-23T18:50:45.367Z,98969.13
2023-02-23T18:54:53.365Z,98961.53
2023-02-23T18:59:01.919Z,98966.56
2023-02-23T19:03:05.211Z,98950.41
2023-02-23T19:07:09.697Z,98955.69
2023-02-23T19:11:14.801Z,98963.28
2023-02-23T19:15:18.768Z,98954.56
2023-02-23T19:19:22.422Z,98960.00
2023-02-23T19:23:36.734Z,98955.31
2023-02-23T19:27:45.928Z,98965.25
2023-02-23T19:31:51.775Z,98961.72
2023-02-23T19:36:01.274Z,98964.31
2023-02-23T19:40:05.063Z,98963.78
2023-02-23T19:44:09.977Z,98969.72
2023-02-23T19:48:13.985Z,98971.31
2023-02-23T19:52:18.238Z,98974.72
2023-02-23T19:56:28.285Z,98981.53
2023-02-23T20:00:37.316Z,98964.94
2023-02-23T20:04:44.076Z,98978.41
2023-02-23T20:08:49.342Z,98979.00
2023-02-23T20:13:00.490Z,98979.44
2023-02-23T20:17:15.225Z,98980.34
2023-02-23T20:21:24.079Z,98989.13
2023-02-23T20:25:28.821Z,98986.13
2023-02-23T20:29:37.041Z,98991.28
2023-02-23T20:33:43.203Z,98983.66
2023-02-23T20:37:50.709Z,98986.69
2023-02-23T20:41:54.902Z,98992.00
2023-02-23T20:46:01.118Z,98976.09
2023-02-23T20:50:10.747Z,98972.44
2023-02-23T20:54:22.371Z,98982.72
2023-02-23T20:58:26.552Z,98985.47
2023-02-23T21:02:31.188Z,98990.13
2023-02-23T21:06:36.481Z,98996.16
2023-02-23T21:10:41.616Z,98990.22
2023-02-23T21:14:53.955Z,98987.78
2023-02-23T21:19:05.625Z,98987.47
2023-02-23T21:23:10.989Z,98972.59
2023-02-23T21:27:15.007Z,98981.91
2023-02-23T21:31:18.193Z,98978.34
2023-02-23T21:35:23.137Z,98978.19
2023-02-23T21:39:31.095Z,98969.06
2023-02-23T21:43:36.066Z,98976.41
2023-02-23T21:47:41.744Z,98947.50
2023-02-23T21:51:52.584Z,98974.31
2023-02-23T21:56:03.704Z,98978.72
2023-02-23T22:00:13.192Z,98972.31
2023-02-23T22:04:18.294Z,98980.34
2023-02-23T22:08:21.746Z,98980.00
2023-02-23T22:12:27.802Z,98976.16
2023-02-23T22:16:33.151Z,98981.16
2023-02-23T22:20:36.552Z,98978.56
2023-02-23T22:24:42.706Z,98971.56
2023-02-23T22:28:47.856Z,98976.16
2023-02-23T22:32:52.353Z,98983.69
2023-02-23T22:36:56.931Z,98940.28
2023-02-23T22:41:02.084Z,98966.69
2023-02-23T22:45:08.637Z,98965.28
2023-02-23T22:49:15.111Z,98965.06
2023-02-23T22:53:20.056Z,98968.94
2023-02-23T22:57:23.659Z,98966.03
2023-02-23T23:01:28.511Z,98957.44
2023-02-23T23:05:36.200Z,98959.63
2023-02-23T23:09:43.397Z,98950.78
2023-02-23T23:13:49.792Z,98950.94
2023-02-23T23:17:54.840Z,98952.88
2023-02-23T23:22:05.708Z,98952.63
2023-02-23T23:26:09.018Z,98952.00
2023-02-23T23:30:14.699Z,98940.19
2023-02-23T23:34:27.059Z,98935.38
2023-02-23T23:38:33.372Z,98936.09
2023-02-23T23:42:37.082Z,98929.69
2023-02-23T23:46:43.670Z,98926.41
2023-02-23T23:50:50.092Z,98925.25
2023-02-23T23:54:57.328Z,98927.88
2023-02-23T23:59:07.983Z,98916.69
